sensor_id;sensor_type;location;lat;lon;timestamp;P1;durP1;ratioP1;P2;durP2;ratioP2
6955;SDS011;50345;51.136;16.886;2023-04-15T00:02:22;35.37;;;31.57;;
6955;SDS011;50345;51.136;16.886;2023-04-15T00:04:47;33.40;;;26.53;;
6955;SDS011;50345;51.136;16.886;2023-04-15T00:07:13;27.30;;;23.57;;
6955;SDS011;50345;51.136;16.886;2023-04-15T00:09:40;32.47;;;24.60;;
6955;SDS011;50345;51.136;16.886;2023-04-15T00:12:06;23.15;;;20.60;;
6955;SDS011;50345;51.136;16.886;2023-04-15T00:14:33;22.52;;;19.60;;
6955;SDS011;50345;51.136;16.886;2023-04-15T00:16:59;20.67;;;18.27;;
6955;SDS011;50345;51.136;16.886;2023-04-15T00:19:25;17.63;;;15.93;;
6955;SDS011;50345;51.136;16.886;2023-04-15T00:21:51;14.90;;;13.13;;
6955;SDS011;50345;51.136;16.886;2023-04-15T00:24:16;14.47;;;12.50;;
6955;SDS011;50345;51.136;16.886;2023-04-15T00:26:42;12.80;;;11.43;;
6955;SDS011;50345;51.136;16.886;2023-04-15T00:29:07;13.20;;;11.90;;
6955;SDS011;50345;51.136;16.886;2023-04-15T00:31:33;11.77;;;10.67;;
6955;SDS011;50345;51.136;16.886;2023-04-15T00:33:59;12.37;;;10.80;;
6955;SDS011;50345;51.136;16.886;2023-04-15T00:36:24;12.43;;;11.10;;
6955;SDS011;50345;51.136;16.886;2023-04-15T00:38:50;18.10;;;10.83;;
6955;SDS011;50345;51.136;16.886;2023-04-15T00:41:16;13.20;;;11.20;;
6955;SDS011;50345;51.136;16.886;2023-04-15T00:43:43;10.60;;;9.70;;
6955;SDS011;50345;51.136;16.886;2023-04-15T00:46:09;12.30;;;10.80;;
6955;SDS011;50345;51.136;16.886;2023-04-15T00:48:38;11.20;;;10.18;;
6955;SDS011;50345;51.136;16.886;2023-04-15T00:51:04;11.27;;;10.20;;
6955;SDS011;50345;51.136;16.886;2023-04-15T00:53:31;11.82;;;10.68;;
6955;SDS011;50345;51.136;16.886;2023-04-15T00:55:57;11.97;;;10.77;;
6955;SDS011;50345;51.136;16.886;2023-04-15T00:58:22;11.60;;;10.40;;
6955;SDS011;50345;51.136;16.886;2023-04-15T01:00:48;11.65;;;10.55;;
6955;SDS011;50345;51.136;16.886;2023-04-15T01:03:18;11.07;;;10.00;;
6955;SDS011;50345;51.136;16.886;2023-04-15T01:05:44;10.15;;;9.13;;
6955;SDS011;50345;51.136;16.886;2023-04-15T01:08:10;10.35;;;9.43;;
6955;SDS011;50345;51.136;16.886;2023-04-15T01:10:36;11.43;;;10.30;;
6955;SDS011;50345;51.136;16.886;2023-04-15T01:13:02;17.20;;;10.87;;
6955;SDS011;50345;51.136;16.886;2023-04-15T01:15:28;12.07;;;10.85;;
6955;SDS011;50345;51.136;16.886;2023-04-15T01:17:54;11.20;;;10.00;;
6955;SDS011;50345;51.136;16.886;2023-04-15T01:20:22;11.05;;;9.95;;
6955;SDS011;50345;51.136;16.886;2023-04-15T01:22:48;12.17;;;10.87;;
6955;SDS011;50345;51.136;16.886;2023-04-15T01:25:18;12.02;;;10.90;;
6955;SDS011;50345;51.136;16.886;2023-04-15T01:27:50;11.20;;;10.10;;
6955;SDS011;50345;51.136;16.886;2023-04-15T01:30:15;11.37;;;10.27;;
6955;SDS011;50345;51.136;16.886;2023-04-15T01:32:41;10.90;;;9.80;;
6955;SDS011;50345;51.136;16.886;2023-04-15T01:35:07;11.77;;;10.67;;
6955;SDS011;50345;51.136;16.886;2023-04-15T01:37:32;11.63;;;10.40;;
6955;SDS011;50345;51.136;16.886;2023-04-15T01:39:58;12.07;;;10.87;;
6955;SDS011;50345;51.136;16.886;2023-04-15T01:42:24;11.10;;;10.17;;
6955;SDS011;50345;51.136;16.886;2023-04-15T01:44:51;13.52;;;10.60;;
6955;SDS011;50345;51.136;16.886;2023-04-15T01:47:17;11.65;;;10.43;;
6955;SDS011;50345;51.136;16.886;2023-04-15T01:49:43;12.53;;;10.27;;
6955;SDS011;50345;51.136;16.886;2023-04-15T01:52:08;11.93;;;10.00;;
6955;SDS011;50345;51.136;16.886;2023-04-15T01:54:34;15.33;;;9.93;;
6955;SDS011;50345;51.136;16.886;2023-04-15T01:57:00;10.90;;;9.90;;
6955;SDS011;50345;51.136;16.886;2023-04-15T01:59:26;14.73;;;11.75;;
6955;SDS011;50345;51.136;16.886;2023-04-15T02:01:51;10.80;;;9.80;;
6955;SDS011;50345;51.136;16.886;2023-04-15T02:04:17;11.80;;;10.60;;
6955;SDS011;50345;51.136;16.886;2023-04-15T02:06:42;13.13;;;11.57;;
6955;SDS011;50345;51.136;16.886;2023-04-15T02:09:08;10.60;;;9.60;;
6955;SDS011;50345;51.136;16.886;2023-04-15T02:11:34;9.90;;;8.95;;
6955;SDS011;50345;51.136;16.886;2023-04-15T02:14:01;12.90;;;10.13;;
6955;SDS011;50345;51.136;16.886;2023-04-15T02:16:29;12.20;;;11.00;;
6955;SDS011;50345;51.136;16.886;2023-04-15T02:18:56;14.15;;;10.48;;
6955;SDS011;50345;51.136;16.886;2023-04-15T02:21:21;10.70;;;9.50;;
6955;SDS011;50345;51.136;16.886;2023-04-15T02:23:47;15.17;;;11.20;;
6955;SDS011;50345;51.136;16.886;2023-04-15T02:26:13;10.20;;;9.40;;
6955;SDS011;50345;51.136;16.886;2023-04-15T02:28:39;11.10;;;9.67;;
6955;SDS011;50345;51.136;16.886;2023-04-15T02:31:05;12.20;;;10.53;;
6955;SDS011;50345;51.136;16.886;2023-04-15T02:33:31;12.25;;;11.05;;
6955;SDS011;50345;51.136;16.886;2023-04-15T02:35:56;12.27;;;11.07;;
6955;SDS011;50345;51.136;16.886;2023-04-15T02:38:23;12.38;;;10.98;;
6955;SDS011;50345;51.136;16.886;2023-04-15T02:40:48;13.80;;;10.30;;
6955;SDS011;50345;51.136;16.886;2023-04-15T02:43:15;13.13;;;11.82;;
6955;SDS011;50345;51.136;16.886;2023-04-15T02:45:44;10.55;;;9.55;;
6955;SDS011;50345;51.136;16.886;2023-04-15T02:48:10;12.52;;;11.27;;
6955;SDS011;50345;51.136;16.886;2023-04-15T02:50:35;12.90;;;11.70;;
6955;SDS011;50345;51.136;16.886;2023-04-15T02:53:03;13.15;;;11.82;;
6955;SDS011;50345;51.136;16.886;2023-04-15T02:55:29;11.93;;;10.75;;
6955;SDS011;50345;51.136;16.886;2023-04-15T02:57:55;14.03;;;11.20;;
6955;SDS011;50345;51.136;16.886;2023-04-15T03:00:23;12.50;;;11.27;;
6955;SDS011;50345;51.136;16.886;2023-04-15T03:02:49;13.20;;;11.80;;
6955;SDS011;50345;51.136;16.886;2023-04-15T03:05:20;18.45;;;16.17;;
6955;SDS011;50345;51.136;16.886;2023-04-15T03:07:49;16.75;;;15.15;;
6955;SDS011;50345;51.136;16.886;2023-04-15T03:10:18;18.63;;;16.35;;
6955;SDS011;50345;51.136;16.886;2023-04-15T03:12:44;19.15;;;17.35;;
6955;SDS011;50345;51.136;16.886;2023-04-15T03:15:09;16.27;;;14.77;;
6955;SDS011;50345;51.136;16.886;2023-04-15T03:17:35;15.95;;;14.40;;
6955;SDS011;50345;51.136;16.886;2023-04-15T03:20:01;14.37;;;13.00;;
6955;SDS011;50345;51.136;16.886;2023-04-15T03:22:29;14.90;;;12.93;;
6955;SDS011;50345;51.136;16.886;2023-04-15T03:24:55;15.73;;;13.25;;
6955;SDS011;50345;51.136;16.886;2023-04-15T03:27:20;15.67;;;13.97;;
6955;SDS011;50345;51.136;16.886;2023-04-15T03:29:46;14.97;;;13.47;;
6955;SDS011;50345;51.136;16.886;2023-04-15T03:32:12;14.20;;;12.77;;
6955;SDS011;50345;51.136;16.886;2023-04-15T03:34:39;16.75;;;14.45;;
6955;SDS011;50345;51.136;16.886;2023-04-15T03:37:05;14.77;;;13.38;;
6955;SDS011;50345;51.136;16.886;2023-04-15T03:39:31;15.93;;;14.23;;
6955;SDS011;50345;51.136;16.886;2023-04-15T03:41:57;18.53;;;14.73;;
6955;SDS011;50345;51.136;16.886;2023-04-15T03:44:23;15.80;;;14.25;;
6955;SDS011;50345;51.136;16.886;2023-04-15T03:46:50;16.05;;;14.43;;
6955;SDS011;50345;51.136;16.886;2023-04-15T03:49:16;15.57;;;14.00;;
6955;SDS011;50345;51.136;16.886;2023-04-15T03:51:43;17.95;;;14.55;;
6955;SDS011;50345;51.136;16.886;2023-04-15T03:54:09;17.60;;;12.93;;
6955;SDS011;50345;51.136;16.886;2023-04-15T03:56:35;13.68;;;12.25;;
6955;SDS011;50345;51.136;16.886;2023-04-15T03:59:01;11.77;;;10.57;;
6955;SDS011;50345;51.136;16.886;2023-04-15T04:01:26;10.30;;;9.30;;
6955;SDS011;50345;51.136;16.886;2023-04-15T04:03:52;9.57;;;8.67;;
6955;SDS011;50345;51.136;16.886;2023-04-15T04:06:17;11.13;;;6.90;;
6955;SDS011;50345;51.136;16.886;2023-04-15T04:08:43;6.53;;;5.93;;
6955;SDS011;50345;51.136;16.886;2023-04-15T04:11:09;6.00;;;5.37;;
6955;SDS011;50345;51.136;16.886;2023-04-15T04:13:35;8.40;;;6.13;;
6955;SDS011;50345;51.136;16.886;2023-04-15T04:16:00;6.10;;;5.50;;
6955;SDS011;50345;51.136;16.886;2023-04-15T04:18:26;5.50;;;5.00;;
6955;SDS011;50345;51.136;16.886;2023-04-15T04:20:52;4.90;;;4.50;;
6955;SDS011;50345;51.136;16.886;2023-04-15T04:23:17;4.67;;;4.00;;
6955;SDS011;50345;51.136;16.886;2023-04-15T04:25:43;3.73;;;3.43;;
6955;SDS011;50345;51.136;16.886;2023-04-15T04:28:09;4.40;;;3.70;;
6955;SDS011;50345;51.136;16.886;2023-04-15T04:30:35;3.70;;;3.40;;
6955;SDS011;50345;51.136;16.886;2023-04-15T04:33:01;3.30;;;3.03;;
6955;SDS011;50345;51.136;16.886;2023-04-15T04:35:26;3.27;;;2.97;;
6955;SDS011;50345;51.136;16.886;2023-04-15T04:37:52;4.93;;;3.53;;
6955;SDS011;50345;51.136;16.886;2023-04-15T04:40:17;4.50;;;3.63;;
6955;SDS011;50345;51.136;16.886;2023-04-15T04:42:43;13.03;;;3.53;;
6955;SDS011;50345;51.136;16.886;2023-04-15T04:45:09;3.30;;;2.97;;
6955;SDS011;50345;51.136;16.886;2023-04-15T04:47:34;3.00;;;2.80;;
6955;SDS011;50345;51.136;16.886;2023-04-15T04:50:00;2.53;;;2.37;;
6955;SDS011;50345;51.136;16.886;2023-04-15T04:52:26;3.60;;;2.80;;
6955;SDS011;50345;51.136;16.886;2023-04-15T04:54:51;2.57;;;2.47;;
6955;SDS011;50345;51.136;16.886;2023-04-15T04:57:17;2.07;;;1.97;;
6955;SDS011;50345;51.136;16.886;2023-04-15T04:59:42;3.07;;;2.30;;
6955;SDS011;50345;51.136;16.886;2023-04-15T05:02:08;1.80;;;1.70;;
6955;SDS011;50345;51.136;16.886;2023-04-15T05:04:33;2.43;;;1.90;;
6955;SDS011;50345;51.136;16.886;2023-04-15T05:07:00;1.80;;;1.70;;
6955;SDS011;50345;51.136;16.886;2023-04-15T05:09:26;1.83;;;1.73;;
6955;SDS011;50345;51.136;16.886;2023-04-15T05:11:52;1.57;;;1.47;;
6955;SDS011;50345;51.136;16.886;2023-04-15T05:14:17;1.80;;;1.70;;
6955;SDS011;50345;51.136;16.886;2023-04-15T05:16:43;1.63;;;1.53;;
6955;SDS011;50345;51.136;16.886;2023-04-15T05:19:08;1.90;;;1.70;;
6955;SDS011;50345;51.136;16.886;2023-04-15T05:21:34;2.90;;;1.93;;
6955;SDS011;50345;51.136;16.886;2023-04-15T05:24:00;2.10;;;1.70;;
6955;SDS011;50345;51.136;16.886;2023-04-15T05:26:25;1.80;;;1.70;;
6955;SDS011;50345;51.136;16.886;2023-04-15T05:28:51;1.33;;;1.20;;
6955;SDS011;50345;51.136;16.886;2023-04-15T05:31:17;1.50;;;1.40;;
6955;SDS011;50345;51.136;16.886;2023-04-15T05:33:42;1.77;;;1.67;;
6955;SDS011;50345;51.136;16.886;2023-04-15T05:36:08;1.87;;;1.63;;
6955;SDS011;50345;51.136;16.886;2023-04-15T05:38:33;1.50;;;1.40;;
6955;SDS011;50345;51.136;16.886;2023-04-15T05:40:59;1.97;;;1.87;;
6955;SDS011;50345;51.136;16.886;2023-04-15T05:43:25;2.20;;;1.40;;
6955;SDS011;50345;51.136;16.886;2023-04-15T05:45:51;1.50;;;1.40;;
6955;SDS011;50345;51.136;16.886;2023-04-15T05:48:16;2.17;;;1.70;;
6955;SDS011;50345;51.136;16.886;2023-04-15T05:50:42;1.83;;;1.73;;
6955;SDS011;50345;51.136;16.886;2023-04-15T05:53:08;1.43;;;1.33;;
6955;SDS011;50345;51.136;16.886;2023-04-15T05:55:33;1.50;;;1.40;;
6955;SDS011;50345;51.136;16.886;2023-04-15T05:57:59;1.70;;;1.60;;
6955;SDS011;50345;51.136;16.886;2023-04-15T06:00:24;1.50;;;1.40;;
6955;SDS011;50345;51.136;16.886;2023-04-15T06:02:50;2.03;;;1.63;;
6955;SDS011;50345;51.136;16.886;2023-04-15T06:05:16;1.63;;;1.50;;
6955;SDS011;50345;51.136;16.886;2023-04-15T06:07:42;1.87;;;1.77;;
6955;SDS011;50345;51.136;16.886;2023-04-15T06:10:08;2.70;;;1.40;;
6955;SDS011;50345;51.136;16.886;2023-04-15T06:12:34;1.63;;;1.52;;
6955;SDS011;50345;51.136;16.886;2023-04-15T06:15:00;1.80;;;1.70;;
6955;SDS011;50345;51.136;16.886;2023-04-15T06:17:26;1.67;;;1.57;;
6955;SDS011;50345;51.136;16.886;2023-04-15T06:19:51;2.10;;;1.27;;
6955;SDS011;50345;51.136;16.886;2023-04-15T06:22:23;1.45;;;1.35;;
6955;SDS011;50345;51.136;16.886;2023-04-15T06:24:49;1.42;;;1.33;;
6955;SDS011;50345;51.136;16.886;2023-04-15T06:27:15;1.50;;;1.40;;
6955;SDS011;50345;51.136;16.886;2023-04-15T06:29:41;1.42;;;1.33;;
6955;SDS011;50345;51.136;16.886;2023-04-15T06:32:07;1.33;;;1.23;;
6955;SDS011;50345;51.136;16.886;2023-04-15T06:34:32;1.50;;;1.37;;
6955;SDS011;50345;51.136;16.886;2023-04-15T06:36:58;2.47;;;1.67;;
6955;SDS011;50345;51.136;16.886;2023-04-15T06:39:24;2.85;;;1.60;;
6955;SDS011;50345;51.136;16.886;2023-04-15T06:41:50;1.30;;;1.20;;
6955;SDS011;50345;51.136;16.886;2023-04-15T06:44:16;1.02;;;1.02;;
6955;SDS011;50345;51.136;16.886;2023-04-15T06:46:42;1.20;;;1.10;;
6955;SDS011;50345;51.136;16.886;2023-04-15T06:49:08;1.48;;;1.38;;
6955;SDS011;50345;51.136;16.886;2023-04-15T06:51:35;1.30;;;1.20;;
6955;SDS011;50345;51.136;16.886;2023-04-15T06:54:01;1.33;;;1.23;;
6955;SDS011;50345;51.136;16.886;2023-04-15T06:56:29;1.40;;;1.08;;
6955;SDS011;50345;51.136;16.886;2023-04-15T06:58:55;1.60;;;1.50;;
6955;SDS011;50345;51.136;16.886;2023-04-15T07:01:21;1.70;;;1.23;;
6955;SDS011;50345;51.136;16.886;2023-04-15T07:03:47;1.00;;;0.90;;
6955;SDS011;50345;51.136;16.886;2023-04-15T07:06:12;1.10;;;1.00;;
6955;SDS011;50345;51.136;16.886;2023-04-15T07:08:38;0.90;;;0.90;;
6955;SDS011;50345;51.136;16.886;2023-04-15T07:11:04;0.80;;;0.80;;
6955;SDS011;50345;51.136;16.886;2023-04-15T07:13:30;0.80;;;0.80;;
6955;SDS011;50345;51.136;16.886;2023-04-15T07:15:56;1.10;;;1.00;;
6955;SDS011;50345;51.136;16.886;2023-04-15T07:18:22;1.23;;;1.13;;
6955;SDS011;50345;51.136;16.886;2023-04-15T07:20:47;1.00;;;0.90;;
6955;SDS011;50345;51.136;16.886;2023-04-15T07:23:13;1.00;;;1.00;;
6955;SDS011;50345;51.136;16.886;2023-04-15T07:25:38;0.70;;;0.70;;
6955;SDS011;50345;51.136;16.886;2023-04-15T07:28:04;1.50;;;1.00;;
6955;SDS011;50345;51.136;16.886;2023-04-15T07:30:30;0.80;;;0.80;;
6955;SDS011;50345;51.136;16.886;2023-04-15T07:32:56;1.10;;;1.00;;
6955;SDS011;50345;51.136;16.886;2023-04-15T07:35:22;0.90;;;0.90;;
6955;SDS011;50345;51.136;16.886;2023-04-15T07:37:49;0.80;;;0.80;;
6955;SDS011;50345;51.136;16.886;2023-04-15T07:40:16;1.13;;;1.00;;
6955;SDS011;50345;51.136;16.886;2023-04-15T07:42:42;0.60;;;0.60;;
6955;SDS011;50345;51.136;16.886;2023-04-15T07:45:07;0.63;;;0.63;;
6955;SDS011;50345;51.136;16.886;2023-04-15T07:47:33;0.70;;;0.70;;
6955;SDS011;50345;51.136;16.886;2023-04-15T07:49:59;0.63;;;0.60;;
6955;SDS011;50345;51.136;16.886;2023-04-15T07:52:26;0.68;;;0.63;;
6955;SDS011;50345;51.136;16.886;2023-04-15T07:54:52;0.95;;;0.73;;
6955;SDS011;50345;51.136;16.886;2023-04-15T07:57:17;0.80;;;0.70;;
6955;SDS011;50345;51.136;16.886;2023-04-15T07:59:43;0.70;;;0.70;;
6955;SDS011;50345;51.136;16.886;2023-04-15T08:02:09;0.60;;;0.60;;
6955;SDS011;50345;51.136;16.886;2023-04-15T08:04:38;0.80;;;0.80;;
6955;SDS011;50345;51.136;16.886;2023-04-15T08:07:03;0.68;;;0.68;;
6955;SDS011;50345;51.136;16.886;2023-04-15T08:09:30;0.75;;;0.75;;
6955;SDS011;50345;51.136;16.886;2023-04-15T08:11:55;0.70;;;0.70;;
6955;SDS011;50345;51.136;16.886;2023-04-15T08:14:21;0.70;;;0.60;;
6955;SDS011;50345;51.136;16.886;2023-04-15T08:16:48;1.00;;;0.73;;
6955;SDS011;50345;51.136;16.886;2023-04-15T08:19:13;0.80;;;0.70;;
6955;SDS011;50345;51.136;16.886;2023-04-15T08:21:39;0.90;;;0.80;;
6955;SDS011;50345;51.136;16.886;2023-04-15T08:24:05;0.98;;;0.88;;
6955;SDS011;50345;51.136;16.886;2023-04-15T08:26:32;0.70;;;0.70;;
6955;SDS011;50345;51.136;16.886;2023-04-15T08:28:57;0.70;;;0.60;;
6955;SDS011;50345;51.136;16.886;2023-04-15T08:31:25;0.80;;;0.80;;
6955;SDS011;50345;51.136;16.886;2023-04-15T08:33:51;0.70;;;0.70;;
6955;SDS011;50345;51.136;16.886;2023-04-15T08:36:18;0.57;;;0.57;;
6955;SDS011;50345;51.136;16.886;2023-04-15T08:38:44;0.70;;;0.70;;
6955;SDS011;50345;51.136;16.886;2023-04-15T08:41:11;1.63;;;0.77;;
6955;SDS011;50345;51.136;16.886;2023-04-15T08:43:48;1.13;;;0.70;;
6955;SDS011;50345;51.136;16.886;2023-04-15T08:46:18;0.90;;;0.80;;
6955;SDS011;50345;51.136;16.886;2023-04-15T08:48:45;0.90;;;0.90;;
6955;SDS011;50345;51.136;16.886;2023-04-15T08:51:12;0.73;;;0.70;;
6955;SDS011;50345;51.136;16.886;2023-04-15T08:53:40;1.00;;;0.60;;
6955;SDS011;50345;51.136;16.886;2023-04-15T08:56:07;0.70;;;0.70;;
6955;SDS011;50345;51.136;16.886;2023-04-15T08:58:34;1.00;;;0.90;;
6955;SDS011;50345;51.136;16.886;2023-04-15T09:01:00;0.73;;;0.70;;
6955;SDS011;50345;51.136;16.886;2023-04-15T09:03:26;1.08;;;0.80;;
6955;SDS011;50345;51.136;16.886;2023-04-15T09:05:52;0.80;;;0.77;;
6955;SDS011;50345;51.136;16.886;2023-04-15T09:08:18;0.80;;;0.77;;
6955;SDS011;50345;51.136;16.886;2023-04-15T09:10:44;0.70;;;0.67;;
6955;SDS011;50345;51.136;16.886;2023-04-15T09:13:10;0.83;;;0.70;;
6955;SDS011;50345;51.136;16.886;2023-04-15T09:15:37;0.70;;;0.70;;
6955;SDS011;50345;51.136;16.886;2023-04-15T09:18:02;0.80;;;0.80;;
6955;SDS011;50345;51.136;16.886;2023-04-15T09:20:28;0.70;;;0.70;;
6955;SDS011;50345;51.136;16.886;2023-04-15T09:22:54;0.70;;;0.70;;
6955;SDS011;50345;51.136;16.886;2023-04-15T09:27:49;0.80;;;0.60;;
6955;SDS011;50345;51.136;16.886;2023-04-15T09:30:16;0.70;;;0.70;;
6955;SDS011;50345;51.136;16.886;2023-04-15T09:32:48;1.57;;;1.00;;
6955;SDS011;50345;51.136;16.886;2023-04-15T09:35:15;0.75;;;0.73;;
6955;SDS011;50345;51.136;16.886;2023-04-15T09:37:41;0.73;;;0.65;;
6955;SDS011;50345;51.136;16.886;2023-04-15T09:40:07;0.70;;;0.70;;
6955;SDS011;50345;51.136;16.886;2023-04-15T09:42:34;1.00;;;1.00;;
6955;SDS011;50345;51.136;16.886;2023-04-15T09:45:09;1.20;;;1.10;;
6955;SDS011;50345;51.136;16.886;2023-04-15T09:47:36;1.00;;;0.90;;
6955;SDS011;50345;51.136;16.886;2023-04-15T09:50:01;1.10;;;0.80;;
6955;SDS011;50345;51.136;16.886;2023-04-15T09:52:27;0.93;;;0.87;;
6955;SDS011;50345;51.136;16.886;2023-04-15T09:54:54;1.07;;;0.70;;
6955;SDS011;50345;51.136;16.886;2023-04-15T09:57:21;0.70;;;0.70;;
6955;SDS011;50345;51.136;16.886;2023-04-15T09:59:48;0.80;;;0.80;;
6955;SDS011;50345;51.136;16.886;2023-04-15T10:02:15;1.07;;;0.80;;
6955;SDS011;50345;51.136;16.886;2023-04-15T10:04:42;0.80;;;0.80;;
6955;SDS011;50345;51.136;16.886;2023-04-15T10:07:09;0.70;;;0.60;;
6955;SDS011;50345;51.136;16.886;2023-04-15T10:09:37;0.87;;;0.87;;
6955;SDS011;50345;51.136;16.886;2023-04-15T10:12:04;0.97;;;0.70;;
6955;SDS011;50345;51.136;16.886;2023-04-15T10:14:31;0.70;;;0.70;;
6955;SDS011;50345;51.136;16.886;2023-04-15T10:17:00;0.70;;;0.70;;
6955;SDS011;50345;51.136;16.886;2023-04-15T10:19:29;0.70;;;0.70;;
6955;SDS011;50345;51.136;16.886;2023-04-15T10:21:57;0.70;;;0.70;;
6955;SDS011;50345;51.136;16.886;2023-04-15T10:24:23;2.13;;;1.00;;
6955;SDS011;50345;51.136;16.886;2023-04-15T10:26:50;1.20;;;1.10;;
6955;SDS011;50345;51.136;16.886;2023-04-15T10:29:16;0.73;;;0.70;;
6955;SDS011;50345;51.136;16.886;2023-04-15T10:31:42;0.83;;;0.83;;
6955;SDS011;50345;51.136;16.886;2023-04-15T10:34:08;0.80;;;0.80;;
6955;SDS011;50345;51.136;16.886;2023-04-15T10:36:35;0.90;;;0.90;;
6955;SDS011;50345;51.136;16.886;2023-04-15T10:39:01;0.80;;;0.80;;
6955;SDS011;50345;51.136;16.886;2023-04-15T10:41:27;1.67;;;1.00;;
6955;SDS011;50345;51.136;16.886;2023-04-15T10:46:33;0.83;;;0.83;;
6955;SDS011;50345;51.136;16.886;2023-04-15T10:49:13;1.93;;;1.00;;
6955;SDS011;50345;51.136;16.886;2023-04-15T10:51:41;0.90;;;0.90;;
6955;SDS011;50345;51.136;16.886;2023-04-15T10:57:34;0.70;;;0.70;;
6955;SDS011;50345;51.136;16.886;2023-04-15T11:02:23;0.70;;;0.70;;
6955;SDS011;50345;51.136;16.886;2023-04-15T11:05:08;0.60;;;0.60;;
6955;SDS011;50345;51.136;16.886;2023-04-15T11:12:50;1.73;;;1.20;;
6955;SDS011;50345;51.136;16.886;2023-04-15T11:15:33;0.80;;;0.80;;
6955;SDS011;50345;51.136;16.886;2023-04-15T11:20:34;0.80;;;0.80;;
6955;SDS011;50345;51.136;16.886;2023-04-15T11:23:00;1.00;;;0.90;;
6955;SDS011;50345;51.136;16.886;2023-04-15T11:25:26;0.83;;;0.83;;
6955;SDS011;50345;51.136;16.886;2023-04-15T11:27:54;1.00;;;0.90;;
6955;SDS011;50345;51.136;16.886;2023-04-15T11:32:47;0.70;;;0.70;;
6955;SDS011;50345;51.136;16.886;2023-04-15T11:35:15;0.80;;;0.80;;
6955;SDS011;50345;51.136;16.886;2023-04-15T11:37:41;0.80;;;0.80;;
6955;SDS011;50345;51.136;16.886;2023-04-15T11:40:07;0.87;;;0.87;;
6955;SDS011;50345;51.136;16.886;2023-04-15T11:42:33;0.77;;;0.70;;
6955;SDS011;50345;51.136;16.886;2023-04-15T11:45:08;0.90;;;0.90;;
6955;SDS011;50345;51.136;16.886;2023-04-15T11:47:39;0.70;;;0.70;;
6955;SDS011;50345;51.136;16.886;2023-04-15T11:53:00;1.27;;;0.93;;
6955;SDS011;50345;51.136;16.886;2023-04-15T11:55:28;1.33;;;1.23;;
6955;SDS011;50345;51.136;16.886;2023-04-15T12:00:50;1.03;;;0.97;;
6955;SDS011;50345;51.136;16.886;2023-04-15T12:03:25;1.20;;;1.10;;
6955;SDS011;50345;51.136;16.886;2023-04-15T12:06:11;1.47;;;1.37;;
6955;SDS011;50345;51.136;16.886;2023-04-15T12:08:48;4.70;;;1.03;;
6955;SDS011;50345;51.136;16.886;2023-04-15T12:11:20;0.83;;;0.83;;
6955;SDS011;50345;51.136;16.886;2023-04-15T12:13:56;0.83;;;0.83;;
6955;SDS011;50345;51.136;16.886;2023-04-15T12:16:38;0.80;;;0.80;;
6955;SDS011;50345;51.136;16.886;2023-04-15T12:19:12;1.40;;;1.30;;
6955;SDS011;50345;51.136;16.886;2023-04-15T12:21:41;1.00;;;1.00;;
6955;SDS011;50345;51.136;16.886;2023-04-15T12:24:10;0.83;;;0.83;;
6955;SDS011;50345;51.136;16.886;2023-04-15T12:26:50;0.90;;;0.80;;
6955;SDS011;50345;51.136;16.886;2023-04-15T12:29:17;0.70;;;0.70;;
6955;SDS011;50345;51.136;16.886;2023-04-15T12:31:56;1.47;;;0.87;;
6955;SDS011;50345;51.136;16.886;2023-04-15T12:34:36;1.03;;;0.93;;
6955;SDS011;50345;51.136;16.886;2023-04-15T12:37:02;3.27;;;0.87;;
6955;SDS011;50345;51.136;16.886;2023-04-15T12:39:30;1.50;;;1.40;;
6955;SDS011;50345;51.136;16.886;2023-04-15T12:41:58;1.00;;;1.00;;
6955;SDS011;50345;51.136;16.886;2023-04-15T12:44:24;1.23;;;0.90;;
6955;SDS011;50345;51.136;16.886;2023-04-15T12:46:50;0.97;;;0.90;;
6955;SDS011;50345;51.136;16.886;2023-04-15T12:49:17;1.43;;;1.33;;
6955;SDS011;50345;51.136;16.886;2023-04-15T12:51:49;1.20;;;1.00;;
6955;SDS011;50345;51.136;16.886;2023-04-15T12:54:16;1.00;;;0.93;;
6955;SDS011;50345;51.136;16.886;2023-04-15T12:56:45;1.07;;;0.97;;
6955;SDS011;50345;51.136;16.886;2023-04-15T12:59:12;0.97;;;0.97;;
6955;SDS011;50345;51.136;16.886;2023-04-15T13:01:39;1.07;;;0.97;;
6955;SDS011;50345;51.136;16.886;2023-04-15T13:04:04;1.67;;;1.03;;
6955;SDS011;50345;51.136;16.886;2023-04-15T13:06:30;1.00;;;0.90;;
6955;SDS011;50345;51.136;16.886;2023-04-15T13:08:58;0.80;;;0.80;;
6955;SDS011;50345;51.136;16.886;2023-04-15T13:11:25;1.17;;;1.17;;
6955;SDS011;50345;51.136;16.886;2023-04-15T13:13:51;0.87;;;0.87;;
6955;SDS011;50345;51.136;16.886;2023-04-15T13:16:17;1.20;;;1.10;;
6955;SDS011;50345;51.136;16.886;2023-04-15T13:18:43;1.27;;;1.00;;
6955;SDS011;50345;51.136;16.886;2023-04-15T13:21:10;1.40;;;1.30;;
6955;SDS011;50345;51.136;16.886;2023-04-15T13:23:37;1.27;;;1.17;;
6955;SDS011;50345;51.136;16.886;2023-04-15T13:26:02;1.27;;;1.10;;
6955;SDS011;50345;51.136;16.886;2023-04-15T13:28:28;1.00;;;1.00;;
6955;SDS011;50345;51.136;16.886;2023-04-15T13:30:53;1.20;;;1.10;;
6955;SDS011;50345;51.136;16.886;2023-04-15T13:33:19;0.97;;;0.90;;
6955;SDS011;50345;51.136;16.886;2023-04-15T13:35:45;0.80;;;0.80;;
6955;SDS011;50345;51.136;16.886;2023-04-15T13:38:10;0.90;;;0.90;;
6955;SDS011;50345;51.136;16.886;2023-04-15T13:40:36;1.00;;;1.00;;
6955;SDS011;50345;51.136;16.886;2023-04-15T13:43:01;0.93;;;0.83;;
6955;SDS011;50345;51.136;16.886;2023-04-15T13:45:28;1.33;;;1.23;;
6955;SDS011;50345;51.136;16.886;2023-04-15T13:47:54;1.10;;;1.00;;
6955;SDS011;50345;51.136;16.886;2023-04-15T13:50:20;1.50;;;1.40;;
6955;SDS011;50345;51.136;16.886;2023-04-15T13:52:45;1.17;;;1.07;;
6955;SDS011;50345;51.136;16.886;2023-04-15T13:55:11;2.60;;;1.67;;
6955;SDS011;50345;51.136;16.886;2023-04-15T13:57:37;1.97;;;1.63;;
6955;SDS011;50345;51.136;16.886;2023-04-15T14:00:02;1.33;;;1.00;;
6955;SDS011;50345;51.136;16.886;2023-04-15T14:02:28;0.93;;;0.90;;
6955;SDS011;50345;51.136;16.886;2023-04-15T14:04:54;2.90;;;1.13;;
6955;SDS011;50345;51.136;16.886;2023-04-15T14:07:20;1.70;;;1.60;;
6955;SDS011;50345;51.136;16.886;2023-04-15T14:09:46;1.73;;;1.10;;
6955;SDS011;50345;51.136;16.886;2023-04-15T14:12:12;2.30;;;1.40;;
6955;SDS011;50345;51.136;16.886;2023-04-15T14:14:38;3.00;;;1.40;;
6955;SDS011;50345;51.136;16.886;2023-04-15T14:17:04;1.10;;;1.00;;
6955;SDS011;50345;51.136;16.886;2023-04-15T14:19:30;1.30;;;1.20;;
6955;SDS011;50345;51.136;16.886;2023-04-15T14:21:56;1.43;;;1.33;;
6955;SDS011;50345;51.136;16.886;2023-04-15T14:24:22;1.63;;;1.30;;
6955;SDS011;50345;51.136;16.886;2023-04-15T14:26:48;1.80;;;1.70;;
6955;SDS011;50345;51.136;16.886;2023-04-15T14:29:13;1.60;;;1.50;;
6955;SDS011;50345;51.136;16.886;2023-04-15T14:31:39;1.20;;;1.10;;
6955;SDS011;50345;51.136;16.886;2023-04-15T14:34:05;1.20;;;1.10;;
6955;SDS011;50345;51.136;16.886;2023-04-15T14:36:30;1.27;;;1.17;;
6955;SDS011;50345;51.136;16.886;2023-04-15T14:38:56;2.27;;;1.17;;
6955;SDS011;50345;51.136;16.886;2023-04-15T14:41:22;1.73;;;1.40;;
6955;SDS011;50345;51.136;16.886;2023-04-15T14:43:48;1.20;;;1.10;;
6955;SDS011;50345;51.136;16.886;2023-04-15T14:46:13;2.07;;;1.40;;
6955;SDS011;50345;51.136;16.886;2023-04-15T14:48:39;1.23;;;1.17;;
6955;SDS011;50345;51.136;16.886;2023-04-15T14:51:05;1.20;;;1.10;;
6955;SDS011;50345;51.136;16.886;2023-04-15T14:53:31;2.90;;;1.47;;
6955;SDS011;50345;51.136;16.886;2023-04-15T14:55:57;1.53;;;1.43;;
6955;SDS011;50345;51.136;16.886;2023-04-15T14:58:22;2.40;;;1.50;;
6955;SDS011;50345;51.136;16.886;2023-04-15T15:00:48;1.33;;;1.23;;
6955;SDS011;50345;51.136;16.886;2023-04-15T15:03:14;1.13;;;1.03;;
6955;SDS011;50345;51.136;16.886;2023-04-15T15:05:40;1.73;;;0.90;;